Flight Information

DEPARTURE
BURBANK, CA
Elevation:
778
Runways:
8/26 - 5802x150 - ASPH-CONC-E
15/33 - 6886x150 - ASPH-CONC-E
ATIS:
135.125 818-843-6633
Clearance Delivery:
118
Ground:
123.9
Tower:
BURBANK TOWER 118.7 132.325 (Helicopters)
DESTINATION
,
Elevation:
TPA:
1000 (est.)


6787.7 NM73° True-14° Var59° HDG

Flight Plan:
(click to file on line)

1. Type
2. Aircraft Identification
3. Aircraft Type / Special Equipment
4. True Airspeed
kts
5. Departure Airport
(ICAO code)
6. Arriving Airport
(ICAO code)
7. Cruising Altitude
ft
8. Alternate Airport
(ICAO code)
9. Route of Flight
10. Remarks


00:00:00 Departure ATIS: Destination ATIS:

Clearance Limit:
Route:
Altitude: Expect in minutes
Frequency:
Transponder: (7500 Hijack / 7600 Lost Comms / 7700 Emergency)


KBUR 281253Z AUTO 31003KT 9SM CLR 17/14 A2989 RMK AO2 SLP110 T01720139 $
Time: 2020-09-28T12:53:00Z
1601299518
Winds: 310 @ 3 kts
Visibility: 9.0 sm
Clouds (AGL): CLR
Temperature: 17.2 C
Dew Point: 13.9 C
Pressure: 29.890747 in Hgbr


Notes:

Data extracted from FAA Digital Chart Supplement. Effective: 0901Z Thursday, Sep 10, 2020 to 0901Z Thursday, Nov 5, 2020
Current ATIS data is provided courtisy of PilotEdge.